sensor_id;sensor_type;location;lat;lon;timestamp;P1;durP1;ratioP1;P2;durP2;ratioP2
19456;SDS011;9867;48.094;11.478;2022-08-03T00:01:52;1.30;;;1.30;;
19456;SDS011;9867;48.094;11.478;2022-08-03T00:04:20;1.13;;;1.13;;
19456;SDS011;9867;48.094;11.478;2022-08-03T00:06:59;2.07;;;1.40;;
19456;SDS011;9867;48.094;11.478;2022-08-03T00:09:27;1.83;;;1.40;;
19456;SDS011;9867;48.094;11.478;2022-08-03T00:12:01;2.10;;;1.50;;
19456;SDS011;9867;48.094;11.478;2022-08-03T00:14:30;1.50;;;1.40;;
19456;SDS011;9867;48.094;11.478;2022-08-03T00:16:58;1.60;;;1.50;;
19456;SDS011;9867;48.094;11.478;2022-08-03T00:19:26;1.50;;;1.40;;
19456;SDS011;9867;48.094;11.478;2022-08-03T00:21:54;1.43;;;1.10;;
19456;SDS011;9867;48.094;11.478;2022-08-03T00:24:22;2.10;;;1.53;;
19456;SDS011;9867;48.094;11.478;2022-08-03T00:26:49;1.60;;;1.50;;
19456;SDS011;9867;48.094;11.478;2022-08-03T00:29:17;1.37;;;1.30;;
19456;SDS011;9867;48.094;11.478;2022-08-03T00:31:47;1.40;;;1.30;;
19456;SDS011;9867;48.094;11.478;2022-08-03T00:34:24;1.40;;;1.30;;
19456;SDS011;9867;48.094;11.478;2022-08-03T00:37:12;1.50;;;1.40;;
19456;SDS011;9867;48.094;11.478;2022-08-03T00:39:41;1.60;;;1.50;;
19456;SDS011;9867;48.094;11.478;2022-08-03T00:42:11;1.70;;;1.60;;
19456;SDS011;9867;48.094;11.478;2022-08-03T00:44:40;2.50;;;1.43;;
19456;SDS011;9867;48.094;11.478;2022-08-03T00:47:10;1.40;;;1.30;;
19456;SDS011;9867;48.094;11.478;2022-08-03T00:49:38;1.50;;;1.10;;
19456;SDS011;9867;48.094;11.478;2022-08-03T00:52:08;1.40;;;1.30;;
19456;SDS011;9867;48.094;11.478;2022-08-03T00:54:37;1.57;;;1.27;;
19456;SDS011;9867;48.094;11.478;2022-08-03T00:57:05;1.43;;;1.40;;
19456;SDS011;9867;48.094;11.478;2022-08-03T00:59:33;1.10;;;1.10;;
19456;SDS011;9867;48.094;11.478;2022-08-03T01:02:03;2.43;;;1.27;;
19456;SDS011;9867;48.094;11.478;2022-08-03T01:04:32;1.40;;;1.30;;
19456;SDS011;9867;48.094;11.478;2022-08-03T01:07:02;1.47;;;1.37;;
19456;SDS011;9867;48.094;11.478;2022-08-03T01:09:40;1.33;;;1.30;;
19456;SDS011;9867;48.094;11.478;2022-08-03T01:12:17;1.10;;;1.10;;
19456;SDS011;9867;48.094;11.478;2022-08-03T01:14:57;1.73;;;1.33;;
19456;SDS011;9867;48.094;11.478;2022-08-03T01:17:31;1.40;;;1.30;;
19456;SDS011;9867;48.094;11.478;2022-08-03T01:20:05;1.40;;;1.30;;
19456;SDS011;9867;48.094;11.478;2022-08-03T01:22:48;6.37;;;1.67;;
19456;SDS011;9867;48.094;11.478;2022-08-03T01:25:32;3.23;;;1.10;;
19456;SDS011;9867;48.094;11.478;2022-08-03T01:28:11;2.30;;;1.27;;
19456;SDS011;9867;48.094;11.478;2022-08-03T01:30:50;1.43;;;1.30;;
19456;SDS011;9867;48.094;11.478;2022-08-03T01:33:23;2.10;;;1.53;;
19456;SDS011;9867;48.094;11.478;2022-08-03T01:35:58;1.40;;;1.30;;
19456;SDS011;9867;48.094;11.478;2022-08-03T01:38:30;1.47;;;1.13;;
19456;SDS011;9867;48.094;11.478;2022-08-03T01:41:01;1.60;;;1.50;;
19456;SDS011;9867;48.094;11.478;2022-08-03T01:43:30;1.30;;;1.20;;
19456;SDS011;9867;48.094;11.478;2022-08-03T01:46:20;1.97;;;1.27;;
19456;SDS011;9867;48.094;11.478;2022-08-03T01:48:51;1.30;;;1.20;;
19456;SDS011;9867;48.094;11.478;2022-08-03T01:51:21;1.40;;;1.40;;
19456;SDS011;9867;48.094;11.478;2022-08-03T01:54:09;2.40;;;1.33;;
19456;SDS011;9867;48.094;11.478;2022-08-03T01:56:40;1.20;;;1.20;;
19456;SDS011;9867;48.094;11.478;2022-08-03T01:59:10;1.50;;;1.40;;
19456;SDS011;9867;48.094;11.478;2022-08-03T02:01:43;1.77;;;1.40;;
19456;SDS011;9867;48.094;11.478;2022-08-03T02:04:31;2.00;;;1.27;;
19456;SDS011;9867;48.094;11.478;2022-08-03T02:07:01;1.57;;;1.47;;
19456;SDS011;9867;48.094;11.478;2022-08-03T02:09:29;1.70;;;1.40;;
19456;SDS011;9867;48.094;11.478;2022-08-03T02:11:58;1.50;;;1.40;;
19456;SDS011;9867;48.094;11.478;2022-08-03T02:14:27;1.13;;;1.13;;
19456;SDS011;9867;48.094;11.478;2022-08-03T02:16:56;3.83;;;1.40;;
19456;SDS011;9867;48.094;11.478;2022-08-03T02:19:25;2.40;;;1.70;;
19456;SDS011;9867;48.094;11.478;2022-08-03T02:22:01;2.70;;;1.33;;
19456;SDS011;9867;48.094;11.478;2022-08-03T02:24:31;1.50;;;1.40;;
19456;SDS011;9867;48.094;11.478;2022-08-03T02:26:59;2.60;;;1.43;;
19456;SDS011;9867;48.094;11.478;2022-08-03T02:29:30;2.50;;;1.80;;
19456;SDS011;9867;48.094;11.478;2022-08-03T02:32:08;1.80;;;1.60;;
19456;SDS011;9867;48.094;11.478;2022-08-03T02:34:36;1.47;;;1.37;;
19456;SDS011;9867;48.094;11.478;2022-08-03T02:37:07;3.97;;;1.63;;
19456;SDS011;9867;48.094;11.478;2022-08-03T02:39:36;1.50;;;1.40;;
19456;SDS011;9867;48.094;11.478;2022-08-03T02:42:07;1.47;;;1.30;;
19456;SDS011;9867;48.094;11.478;2022-08-03T02:44:38;1.73;;;1.20;;
19456;SDS011;9867;48.094;11.478;2022-08-03T02:47:14;4.40;;;1.27;;
19456;SDS011;9867;48.094;11.478;2022-08-03T02:49:46;1.43;;;1.33;;
19456;SDS011;9867;48.094;11.478;2022-08-03T02:52:18;2.63;;;1.57;;
19456;SDS011;9867;48.094;11.478;2022-08-03T02:54:48;1.27;;;1.20;;
19456;SDS011;9867;48.094;11.478;2022-08-03T02:57:19;1.57;;;1.40;;
19456;SDS011;9867;48.094;11.478;2022-08-03T02:59:49;2.60;;;1.50;;
19456;SDS011;9867;48.094;11.478;2022-08-03T03:02:20;2.50;;;1.20;;
19456;SDS011;9867;48.094;11.478;2022-08-03T03:04:50;1.37;;;1.30;;
19456;SDS011;9867;48.094;11.478;2022-08-03T03:07:39;1.30;;;1.20;;
19456;SDS011;9867;48.094;11.478;2022-08-03T03:10:17;1.70;;;1.60;;
19456;SDS011;9867;48.094;11.478;2022-08-03T03:12:47;1.70;;;1.60;;
19456;SDS011;9867;48.094;11.478;2022-08-03T03:15:17;3.43;;;1.90;;
19456;SDS011;9867;48.094;11.478;2022-08-03T03:17:47;1.77;;;1.63;;
19456;SDS011;9867;48.094;11.478;2022-08-03T03:20:16;1.97;;;1.37;;
19456;SDS011;9867;48.094;11.478;2022-08-03T03:22:57;2.63;;;1.60;;
19456;SDS011;9867;48.094;11.478;2022-08-03T03:25:27;1.70;;;1.60;;
19456;SDS011;9867;48.094;11.478;2022-08-03T03:27:55;1.67;;;1.57;;
19456;SDS011;9867;48.094;11.478;2022-08-03T03:30:24;2.80;;;1.70;;
19456;SDS011;9867;48.094;11.478;2022-08-03T03:32:54;2.77;;;1.70;;
19456;SDS011;9867;48.094;11.478;2022-08-03T03:35:22;3.17;;;1.43;;
19456;SDS011;9867;48.094;11.478;2022-08-03T03:37:50;2.37;;;1.70;;
19456;SDS011;9867;48.094;11.478;2022-08-03T03:40:19;1.40;;;1.37;;
19456;SDS011;9867;48.094;11.478;2022-08-03T03:42:48;2.70;;;1.40;;
19456;SDS011;9867;48.094;11.478;2022-08-03T03:45:16;1.30;;;1.30;;
19456;SDS011;9867;48.094;11.478;2022-08-03T03:47:45;1.57;;;1.40;;
19456;SDS011;9867;48.094;11.478;2022-08-03T03:50:14;2.67;;;1.67;;
19456;SDS011;9867;48.094;11.478;2022-08-03T03:52:44;2.93;;;2.00;;
19456;SDS011;9867;48.094;11.478;2022-08-03T03:55:14;1.80;;;1.70;;
19456;SDS011;9867;48.094;11.478;2022-08-03T03:57:43;2.77;;;2.30;;
19456;SDS011;9867;48.094;11.478;2022-08-03T04:00:12;2.37;;;2.00;;
19456;SDS011;9867;48.094;11.478;2022-08-03T04:02:41;2.10;;;1.97;;
19456;SDS011;9867;48.094;11.478;2022-08-03T04:05:09;2.00;;;1.80;;
19456;SDS011;9867;48.094;11.478;2022-08-03T04:07:58;2.27;;;1.80;;
19456;SDS011;9867;48.094;11.478;2022-08-03T04:10:46;1.93;;;1.77;;
19456;SDS011;9867;48.094;11.478;2022-08-03T04:13:28;5.00;;;1.90;;
19456;SDS011;9867;48.094;11.478;2022-08-03T04:16:00;2.67;;;1.83;;
19456;SDS011;9867;48.094;11.478;2022-08-03T04:18:29;1.53;;;1.43;;
19456;SDS011;9867;48.094;11.478;2022-08-03T04:21:02;1.33;;;1.30;;
19456;SDS011;9867;48.094;11.478;2022-08-03T04:23:34;1.90;;;1.63;;
19456;SDS011;9867;48.094;11.478;2022-08-03T04:26:07;1.67;;;1.27;;
19456;SDS011;9867;48.094;11.478;2022-08-03T04:28:38;2.00;;;1.50;;
19456;SDS011;9867;48.094;11.478;2022-08-03T04:31:10;1.97;;;1.33;;
19456;SDS011;9867;48.094;11.478;2022-08-03T04:33:39;1.70;;;1.60;;
19456;SDS011;9867;48.094;11.478;2022-08-03T04:36:09;2.47;;;1.53;;
19456;SDS011;9867;48.094;11.478;2022-08-03T04:41:30;1.63;;;1.50;;
19456;SDS011;9867;48.094;11.478;2022-08-03T04:44:19;4.40;;;2.10;;
19456;SDS011;9867;48.094;11.478;2022-08-03T04:46:54;4.07;;;2.60;;
19456;SDS011;9867;48.094;11.478;2022-08-03T04:49:23;6.30;;;2.53;;
19456;SDS011;9867;48.094;11.478;2022-08-03T04:51:52;5.80;;;2.87;;
19456;SDS011;9867;48.094;11.478;2022-08-03T04:54:21;2.53;;;2.03;;
19456;SDS011;9867;48.094;11.478;2022-08-03T04:56:49;3.03;;;2.20;;
19456;SDS011;9867;48.094;11.478;2022-08-03T04:59:17;3.87;;;2.20;;
19456;SDS011;9867;48.094;11.478;2022-08-03T05:01:45;3.00;;;2.40;;
19456;SDS011;9867;48.094;11.478;2022-08-03T05:04:13;3.40;;;2.40;;
19456;SDS011;9867;48.094;11.478;2022-08-03T05:06:41;5.07;;;2.10;;
19456;SDS011;9867;48.094;11.478;2022-08-03T05:09:13;2.20;;;2.10;;
19456;SDS011;9867;48.094;11.478;2022-08-03T05:12:03;2.73;;;2.00;;
19456;SDS011;9867;48.094;11.478;2022-08-03T05:14:31;3.47;;;1.77;;
19456;SDS011;9867;48.094;11.478;2022-08-03T05:16:59;2.10;;;2.00;;
19456;SDS011;9867;48.094;11.478;2022-08-03T05:19:27;1.83;;;1.73;;
19456;SDS011;9867;48.094;11.478;2022-08-03T05:21:56;2.00;;;1.80;;
19456;SDS011;9867;48.094;11.478;2022-08-03T05:24:24;3.23;;;1.63;;
19456;SDS011;9867;48.094;11.478;2022-08-03T05:26:52;2.10;;;1.87;;
19456;SDS011;9867;48.094;11.478;2022-08-03T05:29:21;1.60;;;1.50;;
19456;SDS011;9867;48.094;11.478;2022-08-03T05:31:49;1.73;;;1.53;;
19456;SDS011;9867;48.094;11.478;2022-08-03T05:34:17;2.80;;;1.30;;
19456;SDS011;9867;48.094;11.478;2022-08-03T05:36:45;1.73;;;1.60;;
19456;SDS011;9867;48.094;11.478;2022-08-03T05:39:12;2.90;;;1.40;;
19456;SDS011;9867;48.094;11.478;2022-08-03T05:41:40;1.63;;;1.53;;
19456;SDS011;9867;48.094;11.478;2022-08-03T05:44:08;1.80;;;1.70;;
19456;SDS011;9867;48.094;11.478;2022-08-03T05:46:37;2.67;;;1.80;;
19456;SDS011;9867;48.094;11.478;2022-08-03T05:49:05;1.60;;;1.50;;
19456;SDS011;9867;48.094;11.478;2022-08-03T05:51:33;2.33;;;1.77;;
19456;SDS011;9867;48.094;11.478;2022-08-03T05:54:02;2.13;;;1.70;;
19456;SDS011;9867;48.094;11.478;2022-08-03T05:56:30;1.50;;;1.50;;
19456;SDS011;9867;48.094;11.478;2022-08-03T05:58:58;1.63;;;1.40;;
19456;SDS011;9867;48.094;11.478;2022-08-03T06:01:47;1.80;;;1.70;;
19456;SDS011;9867;48.094;11.478;2022-08-03T06:04:15;1.60;;;1.50;;
19456;SDS011;9867;48.094;11.478;2022-08-03T06:06:43;2.97;;;1.80;;
19456;SDS011;9867;48.094;11.478;2022-08-03T06:09:11;2.37;;;1.80;;
19456;SDS011;9867;48.094;11.478;2022-08-03T06:11:39;1.67;;;1.57;;
19456;SDS011;9867;48.094;11.478;2022-08-03T06:14:07;1.67;;;1.57;;
19456;SDS011;9867;48.094;11.478;2022-08-03T06:16:35;1.70;;;1.60;;
19456;SDS011;9867;48.094;11.478;2022-08-03T06:19:04;2.30;;;1.70;;
19456;SDS011;9867;48.094;11.478;2022-08-03T06:21:32;1.70;;;1.60;;
19456;SDS011;9867;48.094;11.478;2022-08-03T06:24:05;2.47;;;1.60;;
19456;SDS011;9867;48.094;11.478;2022-08-03T06:26:33;3.13;;;1.87;;
19456;SDS011;9867;48.094;11.478;2022-08-03T06:29:01;4.53;;;1.83;;
19456;SDS011;9867;48.094;11.478;2022-08-03T06:31:33;5.23;;;1.70;;
19456;SDS011;9867;48.094;11.478;2022-08-03T06:34:02;1.93;;;1.73;;
19456;SDS011;9867;48.094;11.478;2022-08-03T06:36:52;2.63;;;2.10;;
19456;SDS011;9867;48.094;11.478;2022-08-03T06:39:27;6.60;;;2.07;;
19456;SDS011;9867;48.094;11.478;2022-08-03T06:41:55;4.13;;;1.90;;
19456;SDS011;9867;48.094;11.478;2022-08-03T06:44:23;3.13;;;2.10;;
19456;SDS011;9867;48.094;11.478;2022-08-03T06:46:51;2.07;;;1.57;;
19456;SDS011;9867;48.094;11.478;2022-08-03T06:49:19;1.50;;;1.40;;
19456;SDS011;9867;48.094;11.478;2022-08-03T06:51:47;1.40;;;1.30;;
19456;SDS011;9867;48.094;11.478;2022-08-03T06:54:40;2.90;;;1.70;;
19456;SDS011;9867;48.094;11.478;2022-08-03T06:57:08;1.90;;;1.70;;
19456;SDS011;9867;48.094;11.478;2022-08-03T06:59:36;3.53;;;2.07;;
19456;SDS011;9867;48.094;11.478;2022-08-03T07:02:24;4.03;;;1.50;;
19456;SDS011;9867;48.094;11.478;2022-08-03T07:04:54;1.77;;;1.67;;
19456;SDS011;9867;48.094;11.478;2022-08-03T07:07:22;3.80;;;1.60;;
19456;SDS011;9867;48.094;11.478;2022-08-03T07:09:51;3.20;;;1.60;;
19456;SDS011;9867;48.094;11.478;2022-08-03T07:12:24;4.07;;;1.90;;
19456;SDS011;9867;48.094;11.478;2022-08-03T07:14:53;2.20;;;1.57;;
19456;SDS011;9867;48.094;11.478;2022-08-03T07:17:26;2.47;;;1.73;;
19456;SDS011;9867;48.094;11.478;2022-08-03T07:19:55;2.60;;;1.53;;
19456;SDS011;9867;48.094;11.478;2022-08-03T07:22:23;1.80;;;1.40;;
19456;SDS011;9867;48.094;11.478;2022-08-03T07:24:52;1.57;;;1.40;;
19456;SDS011;9867;48.094;11.478;2022-08-03T07:27:20;1.73;;;1.63;;
19456;SDS011;9867;48.094;11.478;2022-08-03T07:29:47;3.67;;;1.50;;
19456;SDS011;9867;48.094;11.478;2022-08-03T07:32:15;2.00;;;1.77;;
19456;SDS011;9867;48.094;11.478;2022-08-03T07:34:44;1.50;;;1.40;;
19456;SDS011;9867;48.094;11.478;2022-08-03T07:37:12;1.43;;;1.33;;
19456;SDS011;9867;48.094;11.478;2022-08-03T07:39:40;1.37;;;1.20;;
19456;SDS011;9867;48.094;11.478;2022-08-03T07:42:09;1.77;;;1.30;;
19456;SDS011;9867;48.094;11.478;2022-08-03T07:44:37;1.53;;;1.47;;
19456;SDS011;9867;48.094;11.478;2022-08-03T07:47:05;3.00;;;1.70;;
19456;SDS011;9867;48.094;11.478;2022-08-03T07:49:37;1.70;;;1.30;;
19456;SDS011;9867;48.094;11.478;2022-08-03T07:52:06;1.87;;;1.60;;
19456;SDS011;9867;48.094;11.478;2022-08-03T07:54:53;2.43;;;1.40;;
19456;SDS011;9867;48.094;11.478;2022-08-03T07:57:23;1.50;;;1.40;;
19456;SDS011;9867;48.094;11.478;2022-08-03T07:59:51;1.50;;;1.40;;
19456;SDS011;9867;48.094;11.478;2022-08-03T08:02:37;1.50;;;1.40;;
19456;SDS011;9867;48.094;11.478;2022-08-03T08:05:05;3.63;;;1.53;;
19456;SDS011;9867;48.094;11.478;2022-08-03T08:07:33;1.40;;;1.30;;
19456;SDS011;9867;48.094;11.478;2022-08-03T08:10:01;1.53;;;1.43;;
19456;SDS011;9867;48.094;11.478;2022-08-03T08:12:31;5.80;;;1.70;;
19456;SDS011;9867;48.094;11.478;2022-08-03T08:14:59;1.77;;;1.33;;
19456;SDS011;9867;48.094;11.478;2022-08-03T08:17:27;2.00;;;1.30;;
19456;SDS011;9867;48.094;11.478;2022-08-03T08:19:55;1.20;;;1.20;;
19456;SDS011;9867;48.094;11.478;2022-08-03T08:22:24;1.33;;;1.23;;
19456;SDS011;9867;48.094;11.478;2022-08-03T08:24:57;1.27;;;1.17;;
19456;SDS011;9867;48.094;11.478;2022-08-03T08:27:26;1.20;;;1.10;;
19456;SDS011;9867;48.094;11.478;2022-08-03T08:30:16;1.40;;;1.30;;
19456;SDS011;9867;48.094;11.478;2022-08-03T08:32:46;2.63;;;1.33;;
19456;SDS011;9867;48.094;11.478;2022-08-03T08:35:14;2.23;;;1.17;;
19456;SDS011;9867;48.094;11.478;2022-08-03T08:37:42;2.77;;;1.50;;
19456;SDS011;9867;48.094;11.478;2022-08-03T08:40:16;2.03;;;1.20;;
19456;SDS011;9867;48.094;11.478;2022-08-03T08:42:47;2.87;;;1.33;;
19456;SDS011;9867;48.094;11.478;2022-08-03T08:45:25;4.73;;;1.37;;
19456;SDS011;9867;48.094;11.478;2022-08-03T08:47:54;3.90;;;1.40;;
19456;SDS011;9867;48.094;11.478;2022-08-03T08:50:29;2.20;;;1.30;;
19456;SDS011;9867;48.094;11.478;2022-08-03T08:52:59;8.33;;;1.53;;
19456;SDS011;9867;48.094;11.478;2022-08-03T08:55:29;2.13;;;1.07;;
19456;SDS011;9867;48.094;11.478;2022-08-03T08:58:18;3.07;;;1.67;;
19456;SDS011;9867;48.094;11.478;2022-08-03T09:00:50;1.80;;;1.10;;
19456;SDS011;9867;48.094;11.478;2022-08-03T09:03:18;2.83;;;1.20;;
19456;SDS011;9867;48.094;11.478;2022-08-03T09:05:55;2.53;;;1.97;;
19456;SDS011;9867;48.094;11.478;2022-08-03T09:08:25;4.50;;;1.40;;
19456;SDS011;9867;48.094;11.478;2022-08-03T09:10:53;2.57;;;1.20;;
19456;SDS011;9867;48.094;11.478;2022-08-03T09:13:21;2.47;;;1.27;;
19456;SDS011;9867;48.094;11.478;2022-08-03T09:16:04;1.53;;;1.30;;
19456;SDS011;9867;48.094;11.478;2022-08-03T09:18:36;1.70;;;1.60;;
19456;SDS011;9867;48.094;11.478;2022-08-03T09:21:13;1.10;;;1.00;;
19456;SDS011;9867;48.094;11.478;2022-08-03T09:24:02;3.00;;;1.20;;
19456;SDS011;9867;48.094;11.478;2022-08-03T09:26:48;0.60;;;0.60;;
19456;SDS011;9867;48.094;11.478;2022-08-03T09:29:19;1.80;;;1.20;;
19456;SDS011;9867;48.094;11.478;2022-08-03T09:31:49;1.43;;;1.00;;
19456;SDS011;9867;48.094;11.478;2022-08-03T09:34:27;1.17;;;1.07;;
19456;SDS011;9867;48.094;11.478;2022-08-03T09:36:55;0.70;;;0.70;;
19456;SDS011;9867;48.094;11.478;2022-08-03T09:39:24;1.20;;;1.10;;
19456;SDS011;9867;48.094;11.478;2022-08-03T09:42:08;0.93;;;0.93;;
19456;SDS011;9867;48.094;11.478;2022-08-03T09:44:41;1.10;;;1.03;;
19456;SDS011;9867;48.094;11.478;2022-08-03T09:47:12;2.73;;;1.23;;
19456;SDS011;9867;48.094;11.478;2022-08-03T09:49:41;2.00;;;1.23;;
19456;SDS011;9867;48.094;11.478;2022-08-03T09:52:22;1.10;;;1.10;;
19456;SDS011;9867;48.094;11.478;2022-08-03T09:55:15;1.03;;;1.03;;
19456;SDS011;9867;48.094;11.478;2022-08-03T09:58:05;1.90;;;1.20;;
19456;SDS011;9867;48.094;11.478;2022-08-03T10:00:44;1.17;;;1.00;;
19456;SDS011;9867;48.094;11.478;2022-08-03T10:03:21;2.00;;;1.20;;
19456;SDS011;9867;48.094;11.478;2022-08-03T10:05:49;1.40;;;0.90;;
19456;SDS011;9867;48.094;11.478;2022-08-03T10:08:24;1.60;;;1.50;;
19456;SDS011;9867;48.094;11.478;2022-08-03T10:10:52;1.10;;;1.10;;
19456;SDS011;9867;48.094;11.478;2022-08-03T10:13:22;3.47;;;0.97;;
19456;SDS011;9867;48.094;11.478;2022-08-03T10:15:49;1.30;;;0.73;;
19456;SDS011;9867;48.094;11.478;2022-08-03T10:18:39;1.10;;;1.00;;
19456;SDS011;9867;48.094;11.478;2022-08-03T10:21:07;1.13;;;1.00;;
19456;SDS011;9867;48.094;11.478;2022-08-03T10:23:40;1.23;;;1.13;;
19456;SDS011;9867;48.094;11.478;2022-08-03T10:26:08;1.20;;;1.10;;
19456;SDS011;9867;48.094;11.478;2022-08-03T10:28:40;3.53;;;1.10;;
19456;SDS011;9867;48.094;11.478;2022-08-03T10:31:13;1.30;;;1.10;;
19456;SDS011;9867;48.094;11.478;2022-08-03T10:33:46;1.77;;;1.00;;
19456;SDS011;9867;48.094;11.478;2022-08-03T10:36:19;0.90;;;0.87;;
19456;SDS011;9867;48.094;11.478;2022-08-03T10:38:50;1.30;;;1.07;;
19456;SDS011;9867;48.094;11.478;2022-08-03T10:41:19;3.17;;;1.07;;
19456;SDS011;9867;48.094;11.478;2022-08-03T10:43:49;1.20;;;1.10;;
19456;SDS011;9867;48.094;11.478;2022-08-03T10:46:21;0.93;;;0.93;;
19456;SDS011;9867;48.094;11.478;2022-08-03T10:48:51;1.47;;;0.90;;
19456;SDS011;9867;48.094;11.478;2022-08-03T10:51:19;0.93;;;0.93;;
19456;SDS011;9867;48.094;11.478;2022-08-03T10:53:48;2.73;;;1.00;;
19456;SDS011;9867;48.094;11.478;2022-08-03T10:56:39;1.30;;;1.20;;
19456;SDS011;9867;48.094;11.478;2022-08-03T11:05:40;1.17;;;1.07;;
19456;SDS011;9867;48.094;11.478;2022-08-03T11:14:08;1.13;;;1.10;;
19456;SDS011;9867;48.094;11.478;2022-08-03T11:16:46;1.10;;;1.00;;
19456;SDS011;9867;48.094;11.478;2022-08-03T11:19:21;1.00;;;0.93;;
19456;SDS011;9867;48.094;11.478;2022-08-03T11:22:16;1.77;;;1.10;;
19456;SDS011;9867;48.094;11.478;2022-08-03T11:24:59;1.73;;;0.93;;
19456;SDS011;9867;48.094;11.478;2022-08-03T11:27:32;1.10;;;1.10;;
19456;SDS011;9867;48.094;11.478;2022-08-03T11:30:08;1.37;;;1.03;;
19456;SDS011;9867;48.094;11.478;2022-08-03T11:32:56;1.07;;;0.97;;
19456;SDS011;9867;48.094;11.478;2022-08-03T11:35:30;0.87;;;0.87;;
19456;SDS011;9867;48.094;11.478;2022-08-03T11:38:11;1.33;;;0.93;;
19456;SDS011;9867;48.094;11.478;2022-08-03T11:40:48;2.50;;;1.03;;
19456;SDS011;9867;48.094;11.478;2022-08-03T11:46:13;1.20;;;1.10;;
19456;SDS011;9867;48.094;11.478;2022-08-03T11:49:00;1.30;;;1.20;;
19456;SDS011;9867;48.094;11.478;2022-08-03T11:51:37;0.93;;;0.90;;
19456;SDS011;9867;48.094;11.478;2022-08-03T11:54:06;2.87;;;1.20;;
19456;SDS011;9867;48.094;11.478;2022-08-03T11:56:43;0.90;;;0.90;;
19456;SDS011;9867;48.094;11.478;2022-08-03T11:59:12;1.07;;;1.07;;
19456;SDS011;9867;48.094;11.478;2022-08-03T12:01:46;1.47;;;1.10;;
19456;SDS011;9867;48.094;11.478;2022-08-03T12:04:14;1.10;;;1.00;;
19456;SDS011;9867;48.094;11.478;2022-08-03T12:09:27;0.83;;;0.83;;
19456;SDS011;9867;48.094;11.478;2022-08-03T12:11:55;1.47;;;1.10;;
19456;SDS011;9867;48.094;11.478;2022-08-03T12:14:26;0.93;;;0.93;;
19456;SDS011;9867;48.094;11.478;2022-08-03T12:17:15;1.20;;;1.10;;
19456;SDS011;9867;48.094;11.478;2022-08-03T12:19:43;1.00;;;1.00;;
19456;SDS011;9867;48.094;11.478;2022-08-03T12:22:12;1.70;;;1.23;;
19456;SDS011;9867;48.094;11.478;2022-08-03T12:24:42;1.23;;;1.10;;
19456;SDS011;9867;48.094;11.478;2022-08-03T12:27:21;1.90;;;0.83;;
19456;SDS011;9867;48.094;11.478;2022-08-03T12:29:50;1.03;;;1.03;;
19456;SDS011;9867;48.094;11.478;2022-08-03T12:32:24;1.00;;;1.00;;
19456;SDS011;9867;48.094;11.478;2022-08-03T12:34:53;1.13;;;0.70;;
19456;SDS011;9867;48.094;11.478;2022-08-03T12:37:27;1.13;;;1.03;;
19456;SDS011;9867;48.094;11.478;2022-08-03T12:39:56;0.93;;;0.80;;
19456;SDS011;9867;48.094;11.478;2022-08-03T12:42:36;0.93;;;0.93;;
19456;SDS011;9867;48.094;11.478;2022-08-03T12:45:17;1.30;;;1.20;;
19456;SDS011;9867;48.094;11.478;2022-08-03T12:47:50;0.80;;;0.80;;
19456;SDS011;9867;48.094;11.478;2022-08-03T12:50:23;0.80;;;0.80;;
19456;SDS011;9867;48.094;11.478;2022-08-03T12:52:54;1.83;;;0.87;;
19456;SDS011;9867;48.094;11.478;2022-08-03T12:55:23;1.00;;;0.90;;
19456;SDS011;9867;48.094;11.478;2022-08-03T12:58:27;1.40;;;0.77;;
19456;SDS011;9867;48.094;11.478;2022-08-03T13:00:59;0.90;;;0.90;;
19456;SDS011;9867;48.094;11.478;2022-08-03T13:03:38;1.77;;;0.80;;
19456;SDS011;9867;48.094;11.478;2022-08-03T13:06:11;1.00;;;1.00;;
19456;SDS011;9867;48.094;11.478;2022-08-03T13:08:41;1.50;;;0.93;;
19456;SDS011;9867;48.094;11.478;2022-08-03T13:11:17;1.80;;;1.00;;
19456;SDS011;9867;48.094;11.478;2022-08-03T13:14:10;1.40;;;0.80;;
19456;SDS011;9867;48.094;11.478;2022-08-03T13:16:45;1.00;;;0.70;;
19456;SDS011;9867;48.094;11.478;2022-08-03T13:19:13;0.90;;;0.90;;
19456;SDS011;9867;48.094;11.478;2022-08-03T13:21:41;1.63;;;0.90;;
19456;SDS011;9867;48.094;11.478;2022-08-03T13:24:31;1.27;;;0.90;;
19456;SDS011;9867;48.094;11.478;2022-08-03T13:27:00;2.13;;;1.10;;
19456;SDS011;9867;48.094;11.478;2022-08-03T13:29:50;2.13;;;1.07;;
19456;SDS011;9867;48.094;11.478;2022-08-03T13:32:19;1.00;;;0.93;;
19456;SDS011;9867;48.094;11.478;2022-08-03T13:34:47;0.97;;;0.97;;
19456;SDS011;9867;48.094;11.478;2022-08-03T13:37:16;1.90;;;1.00;;
19456;SDS011;9867;48.094;11.478;2022-08-03T13:39:45;0.80;;;0.80;;
19456;SDS011;9867;48.094;11.478;2022-08-03T13:42:26;1.10;;;1.00;;
19456;SDS011;9867;48.094;11.478;2022-08-03T13:44:54;1.33;;;0.77;;
19456;SDS011;9867;48.094;11.478;2022-08-03T13:47:22;1.07;;;0.90;;
19456;SDS011;9867;48.094;11.478;2022-08-03T13:49:50;1.33;;;0.73;;
19456;SDS011;9867;48.094;11.478;2022-08-03T13:52:27;1.57;;;1.27;;
19456;SDS011;9867;48.094;11.478;2022-08-03T13:54:57;1.00;;;1.00;;
19456;SDS011;9867;48.094;11.478;2022-08-03T13:57:25;2.73;;;0.93;;
19456;SDS011;9867;48.094;11.478;2022-08-03T14:00:14;1.20;;;1.10;;
19456;SDS011;9867;48.094;11.478;2022-08-03T14:02:54;0.90;;;0.90;;
19456;SDS011;9867;48.094;11.478;2022-08-03T14:05:40;1.43;;;1.30;;
19456;SDS011;9867;48.094;11.478;2022-08-03T14:08:09;2.53;;;1.10;;
19456;SDS011;9867;48.094;11.478;2022-08-03T14:10:40;1.10;;;1.00;;
19456;SDS011;9867;48.094;11.478;2022-08-03T14:13:11;1.33;;;0.90;;
19456;SDS011;9867;48.094;11.478;2022-08-03T14:15:43;0.83;;;0.83;;
19456;SDS011;9867;48.094;11.478;2022-08-03T14:18:16;0.63;;;0.63;;
19456;SDS011;9867;48.094;11.478;2022-08-03T14:21:00;2.93;;;1.07;;
19456;SDS011;9867;48.094;11.478;2022-08-03T14:23:33;1.37;;;1.10;;
19456;SDS011;9867;48.094;11.478;2022-08-03T14:26:04;1.20;;;0.83;;
19456;SDS011;9867;48.094;11.478;2022-08-03T14:28:32;2.20;;;1.00;;
19456;SDS011;9867;48.094;11.478;2022-08-03T14:31:00;1.87;;;1.20;;
19456;SDS011;9867;48.094;11.478;2022-08-03T14:33:28;1.80;;;1.10;;
19456;SDS011;9867;48.094;11.478;2022-08-03T14:35:56;1.00;;;0.90;;
19456;SDS011;9867;48.094;11.478;2022-08-03T14:38:24;1.00;;;0.80;;
19456;SDS011;9867;48.094;11.478;2022-08-03T14:40:52;0.90;;;0.90;;
19456;SDS011;9867;48.094;11.478;2022-08-03T14:43:22;1.77;;;0.80;;
19456;SDS011;9867;48.094;11.478;2022-08-03T14:45:50;1.33;;;1.10;;
19456;SDS011;9867;48.094;11.478;2022-08-03T14:48:19;1.00;;;1.00;;
19456;SDS011;9867;48.094;11.478;2022-08-03T14:51:07;1.50;;;1.00;;
19456;SDS011;9867;48.094;11.478;2022-08-03T14:53:35;1.30;;;1.00;;
19456;SDS011;9867;48.094;11.478;2022-08-03T14:56:04;1.20;;;1.10;;
19456;SDS011;9867;48.094;11.478;2022-08-03T14:58:37;1.63;;;1.07;;
19456;SDS011;9867;48.094;11.478;2022-08-03T15:01:05;3.23;;;1.23;;
19456;SDS011;9867;48.094;11.478;2022-08-03T15:03:53;1.10;;;1.10;;
19456;SDS011;9867;48.094;11.478;2022-08-03T15:06:21;1.60;;;1.17;;
19456;SDS011;9867;48.094;11.478;2022-08-03T15:08:50;3.33;;;1.10;;
19456;SDS011;9867;48.094;11.478;2022-08-03T15:11:38;3.03;;;1.17;;
19456;SDS011;9867;48.094;11.478;2022-08-03T15:14:07;1.97;;;1.03;;
19456;SDS011;9867;48.094;11.478;2022-08-03T15:16:35;1.10;;;1.00;;
19456;SDS011;9867;48.094;11.478;2022-08-03T15:19:03;0.97;;;0.80;;
19456;SDS011;9867;48.094;11.478;2022-08-03T15:21:51;0.90;;;0.90;;
19456;SDS011;9867;48.094;11.478;2022-08-03T15:24:19;1.97;;;1.00;;
19456;SDS011;9867;48.094;11.478;2022-08-03T15:26:47;1.40;;;0.80;;
19456;SDS011;9867;48.094;11.478;2022-08-03T15:29:18;2.13;;;1.20;;
19456;SDS011;9867;48.094;11.478;2022-08-03T15:32:06;1.07;;;1.00;;
19456;SDS011;9867;48.094;11.478;2022-08-03T15:34:35;1.30;;;1.20;;
19456;SDS011;9867;48.094;11.478;2022-08-03T15:37:03;1.43;;;0.83;;
19456;SDS011;9867;48.094;11.478;2022-08-03T15:39:41;2.63;;;1.20;;
19456;SDS011;9867;48.094;11.478;2022-08-03T15:42:26;4.13;;;3.23;;